Rechercher aéroport 
image banner adimage banner adimage banner ad
image banner ad

H37 - Herlong

Situé à Herlong, United States

ICAO - H37, IATA -

Données fournies par Airmate  

Information générale

Coordonnées: N40°8'19" W120°10'48"
Élévation : 4062 feet MSL.
Variation magnétique : 16° East
Voir autres Aéroports à California

Données opérationnelles

Special qualification required
Heure actuelle UTC:
Heure actuelle locale:
Météo à : KSVE - Susanville Muni ( 42 km )
METAR: KSVE 020535Z AUTO 30007KT 9SM CLR 25/00 A3023 RMK AO2
Voir NOTAMs / SUP AIP / TFR affectant cet aéroport [VIEW]
Fréquences de communication: [VIEW]

Pistes:

Identifiant RWYQFULongueur (ft)Largeur (ft)SurfaceLDA (ft)
06326040ASPH
24326040ASPH

Coordonnées de l'aéroport

Adresse: Herlong United States

Vue satellite de H37